Capt Amer — 3FCQ3 — position and weather

sailwx.info

Track history (hours):
 
Tides and Currents Weather Stations Pressure Air Temp Water Temp Dewpoint Dewpoint Depression Visibility Wind Speed Wind Dir Waves Ship Positions

Capt Amer

Last reported at 2016-Jun-30 23:32 UTC. Time now 2016-Jul-02 07:41 UTC.
Position N 44°32' E 037°40'.

Length 113 m; draft 5.1 m.

Type: Cargo ship. MMSI: 373175000.

Date/timePositionNaut miles runAvg speedWind from/ knotsBaromVisibWave heightAir tempDewpointWater temp
2016-Jun-30 23:32N 44°32' E 037°40'1010.7
2016-Jun-30 22:33N 44°39' E 037°51'5 4.8
2016-Jun-30 21:32N 44°44' E 037°48'0 0.0
2016-Jun-30 20:32N 44°44' E 037°48'0 0.0
2016-Jun-30 19:34N 44°44' E 037°48'0 0.0
2016-Jun-30 18:31N 44°44' E 037°48'0 0.0
2016-Jun-30 17:31N 44°44' E 037°48'0 0.0
2016-Jun-30 16:31N 44°44' E 037°48'0 0.0
2016-Jun-30 15:25N 44°44' E 037°48'0 0.0
2016-Jun-30 14:28N 44°44' E 037°48'0 0.0
2016-Jun-30 13:31N 44°44' E 037°48'0 0.0
2016-Jun-30 12:31N 44°44' E 037°48'0 0.0
2016-Jun-30 11:28N 44°44' E 037°48'0 0.0
2016-Jun-30 10:31N 44°44' E 037°48'0 0.0
2016-Jun-30 09:31N 44°44' E 037°48'0 0.0
2016-Jun-30 08:31N 44°44' E 037°48'0 0.0
2016-Jun-30 07:31N 44°44' E 037°48'0 0.0
2016-Jun-30 06:31N 44°44' E 037°48'0 0.0
2016-Jun-30 05:31N 44°44' E 037°48'0 0.0
2016-Jun-30 04:31N 44°44' E 037°48'0 0.0
2016-Jun-30 03:31N 44°44' E 037°48'0 0.0
2016-Jun-30 02:31N 44°44' E 037°48'0 0.0
2016-Jun-30 01:31N 44°44' E 037°48'0 0.0
2016-Jun-30 00:31N 44°44' E 037°48'0 0.0
2016-Jun-29 23:31N 44°44' E 037°48'0 0.0
2016-Jun-29 22:31N 44°44' E 037°48'0 0.0
2016-Jun-29 21:31N 44°44' E 037°48'0 0.0
2016-Jun-29 20:31N 44°44' E 037°48'0 0.0
2016-Jun-29 19:33N 44°44' E 037°48'0 0.0
2016-Jun-29 18:31N 44°44' E 037°48'0 0.0
2016-Jun-29 17:31N 44°44' E 037°48'0 0.0
2016-Jun-29 16:32N 44°44' E 037°48'0 0.0
2016-Jun-29 15:33N 44°44' E 037°48'3 2.9
2016-Jun-29 14:33N 44°41' E 037°50'7 7.0
2016-Jun-29 13:33N 44°35' E 037°53'3 3.1
2016-Jun-29 12:32N 44°34' E 037°58'0 0.0
2016-Jun-29 11:29N 44°34' E 037°58'0 0.0
2016-Jun-29 10:33N 44°34' E 037°58'0 0.0
2016-Jun-29 09:31N 44°34' E 037°58'0 0.0
2016-Jun-29 08:31N 44°34' E 037°58'0 0.0
2016-Jun-29 07:31N 44°34' E 037°58'0 0.0
2016-Jun-29 06:19N 44°34' E 037°58'0 0.0
2016-Jun-29 05:31N 44°34' E 037°58'0 0.0
2016-Jun-29 04:31N 44°34' E 037°58'0 0.0
2016-Jun-29 03:31N 44°34' E 037°58'0 0.0
2016-Jun-29 02:31N 44°34' E 037°58'0 0.0
2016-Jun-29 01:28N 44°34' E 037°58'0 0.0
2016-Jun-29 00:31N 44°34' E 037°58'0 0.0
2016-Jun-28 23:31N 44°34' E 037°58'0 0.0
2016-Jun-28 22:31N 44°34' E 037°58'0 0.0
2016-Jun-28 21:31N 44°34' E 037°58'0 0.0
2016-Jun-28 20:31N 44°34' E 037°58'0 0.0
2016-Jun-28 19:33N 44°34' E 037°58'0 0.0
2016-Jun-28 18:33N 44°34' E 037°58'0 0.0
2016-Jun-28 17:33N 44°34' E 037°58'0 0.0
2016-Jun-28 16:33N 44°34' E 037°58'0 0.0
2016-Jun-28 15:34N 44°34' E 037°58'0 0.0
2016-Jun-28 14:33N 44°34' E 037°58'0 0.0
2016-Jun-28 13:33N 44°34' E 037°58'0 0.0
2016-Jun-28 12:34N 44°34' E 037°58'0 0.0
2016-Jun-28 11:33N 44°34' E 037°58'0 0.0
2016-Jun-28 10:33N 44°34' E 037°58'0 0.0
2016-Jun-28 09:33N 44°34' E 037°58'0 0.0
2016-Jun-28 08:33N 44°34' E 037°58'0 0.0
2016-Jun-28 07:33N 44°34' E 037°58'0 0.0
2016-Jun-28 06:33N 44°34' E 037°58'0 0.0
2016-Jun-28 04:33N 44°34' E 037°58'0 0.0
2016-Jun-28 03:33N 44°34' E 037°58'0 0.0
2016-Jun-28 02:33N 44°34' E 037°58'0 0.0
2016-Jun-28 01:33N 44°34' E 037°58'0 0.0
2016-Jun-28 00:24N 44°34' E 037°58'0 0.0
2016-Jun-27 23:33N 44°34' E 037°58'0 0.0
2016-Jun-27 22:33N 44°34' E 037°58'0 0.0
2016-Jun-27 21:33N 44°34' E 037°58'0 0.0
2016-Jun-27 20:30N 44°34' E 037°58'0 0.0
2016-Jun-27 19:33N 44°34' E 037°58'0 0.0
2016-Jun-27 18:33N 44°34' E 037°58'0 0.0
2016-Jun-27 17:33N 44°34' E 037°58'0 0.0
2016-Jun-27 16:33N 44°34' E 037°58'0 0.0
2016-Jun-27 15:33N 44°34' E 037°58'0 0.0
2016-Jun-27 14:33N 44°34' E 037°58'0 0.0
2016-Jun-27 13:33N 44°34' E 037°58'0 0.0
2016-Jun-27 12:33N 44°34' E 037°58'0 0.0
2016-Jun-27 11:33N 44°34' E 037°58'0 0.0
2016-Jun-27 10:33N 44°34' E 037°58'0 0.0
2016-Jun-27 09:33N 44°34' E 037°58'0 0.0
2016-Jun-27 08:33N 44°34' E 037°58'0 0.0
2016-Jun-27 07:33N 44°34' E 037°58'0 0.0
2016-Jun-27 06:33N 44°34' E 037°58'0 0.0
2016-Jun-27 05:33N 44°34' E 037°58'0 0.0
2016-Jun-27 04:30N 44°34' E 037°58'0 0.0
2016-Jun-27 03:33N 44°34' E 037°58'0 0.0
2016-Jun-27 02:33N 44°34' E 037°58'0 0.0
2016-Jun-27 01:32N 44°34' E 037°58'0 0.0
2016-Jun-27 00:32N 44°34' E 037°58'0 0.0
2016-Jun-26 23:32N 44°34' E 037°58'0 0.0
2016-Jun-26 22:32N 44°34' E 037°58'0 0.0
2016-Jun-26 21:32N 44°34' E 037°58'0 0.0
2016-Jun-26 20:32N 44°34' E 037°58'0 0.0
2016-Jun-26 19:32N 44°34' E 037°58'0 0.0
2016-Jun-26 18:32N 44°34' E 037°58'0 0.0
2016-Jun-26 17:33N 44°34' E 037°58'0 0.0
2016-Jun-26 16:32N 44°34' E 037°58'0 0.0
2016-Jun-26 15:32N 44°34' E 037°58'0 0.0
2016-Jun-26 14:29N 44°34' E 037°58'0 0.0
2016-Jun-26 13:32N 44°34' E 037°58'0 0.1
2016-Jun-26 12:32N 44°34' E 037°58'0 0.0
2016-Jun-26 11:32N 44°34' E 037°58'1 1.0
2016-Jun-26 10:34N 44°34' E 037°57'8 7.9
2016-Jun-26 09:33N 44°30' E 037°47'1212.1
2016-Jun-26 08:33N 44°24' E 037°32'1211.8
2016-Jun-26 07:33N 44°20' E 037°17'3 0.3
2016-Jun-25 21:20N 44°17' E 037°19'1 1.8
2016-Jun-25 20:33N 44°17' E 037°21'4 1.3
2016-Jun-25 17:20N 44°19' E 037°26'1 1.0
2016-Jun-25 16:33N 44°19' E 037°28'0 0.3
2016-Jun-25 15:29N 44°19' E 037°28'0 0.2
2016-Jun-25 14:33N 44°18' E 037°28'0 0.4
2016-Jun-25 13:31N 44°18' E 037°28'0 0.5
2016-Jun-25 12:32N 44°18' E 037°27'1 0.5
2016-Jun-25 10:34N 44°17' E 037°28'1 0.9
2016-Jun-25 09:14N 44°18' E 037°29'3 1.1
2016-Jun-25 06:10N 44°21' E 037°31'4 1.4
2016-Jun-25 03:26N 44°25' E 037°33'1 1.6
2016-Jun-25 02:32N 44°26' E 037°34'3 2.7
2016-Jun-25 01:34N 44°25' E 037°30'1110.6
2016-Jun-25 00:32N 44°20' E 037°17'2211.0
2016-Jun-24 22:31N 44°10' E 036°49'5210.2
2016-Jun-24 17:27N 44°08' E 035°37'910.4
2016-Jun-24 16:33N 44°08' E 035°24'1110.2
2016-Jun-24 15:29N 44°08' E 035°09'9 9.9
2016-Jun-24 14:33N 44°08' E 034°56'1010.1
2016-Jun-24 13:34N 44°08' E 034°42'1110.5
2016-Jun-24 12:34N 44°08' E 034°28'1110.6
2016-Jun-24 11:33N 44°08' E 034°13'1110.5
2016-Jun-24 10:30N 44°08' E 033°57'7510.8
2016-Jun-24 03:33N 44°08' E 032°13'2510.8
2016-Jun-24 01:13N 44°08' E 031°38'  
Track history (hours):
 
Tides and Currents Weather Stations Pressure Air Temp Water Temp Dewpoint Dewpoint Depression Visibility Wind Speed Wind Dir Waves Ship Positions

Capt Amer

Last reported at 2016-Jun-30 23:32 UTC. Time now 2016-Jul-02 07:41 UTC.
Position N 44°32' E 037°40'.

Length 113 m; draft 5.1 m.

Type: Cargo ship. MMSI: 373175000.

Date/timePositionNaut miles runAvg speedWind from/ knotsBaromVisibWave heightAir tempDewpointWater temp
2016-Jun-30 23:32N 44°32' E 037°40'1010.7
2016-Jun-30 22:33N 44°39' E 037°51'5 4.8
2016-Jun-30 21:32N 44°44' E 037°48'0 0.0
2016-Jun-30 20:32N 44°44' E 037°48'0 0.0
2016-Jun-30 19:34N 44°44' E 037°48'0 0.0
2016-Jun-30 18:31N 44°44' E 037°48'0 0.0
2016-Jun-30 17:31N 44°44' E 037°48'0 0.0
2016-Jun-30 16:31N 44°44' E 037°48'0 0.0
2016-Jun-30 15:25N 44°44' E 037°48'0 0.0
2016-Jun-30 14:28N 44°44' E 037°48'0 0.0
2016-Jun-30 13:31N 44°44' E 037°48'0 0.0
2016-Jun-30 12:31N 44°44' E 037°48'0 0.0
2016-Jun-30 11:28N 44°44' E 037°48'0 0.0
2016-Jun-30 10:31N 44°44' E 037°48'0 0.0
2016-Jun-30 09:31N 44°44' E 037°48'0 0.0
2016-Jun-30 08:31N 44°44' E 037°48'0 0.0
2016-Jun-30 07:31N 44°44' E 037°48'0 0.0
2016-Jun-30 06:31N 44°44' E 037°48'0 0.0
2016-Jun-30 05:31N 44°44' E 037°48'0 0.0
2016-Jun-30 04:31N 44°44' E 037°48'0 0.0
2016-Jun-30 03:31N 44°44' E 037°48'0 0.0
2016-Jun-30 02:31N 44°44' E 037°48'0 0.0
2016-Jun-30 01:31N 44°44' E 037°48'0 0.0
2016-Jun-30 00:31N 44°44' E 037°48'0 0.0
2016-Jun-29 23:31N 44°44' E 037°48'0 0.0
2016-Jun-29 22:31N 44°44' E 037°48'0 0.0
2016-Jun-29 21:31N 44°44' E 037°48'0 0.0
2016-Jun-29 20:31N 44°44' E 037°48'0 0.0
2016-Jun-29 19:33N 44°44' E 037°48'0 0.0
2016-Jun-29 18:31N 44°44' E 037°48'0 0.0
2016-Jun-29 17:31N 44°44' E 037°48'0 0.0
2016-Jun-29 16:32N 44°44' E 037°48'0 0.0
2016-Jun-29 15:33N 44°44' E 037°48'3 2.9
2016-Jun-29 14:33N 44°41' E 037°50'7 7.0
2016-Jun-29 13:33N 44°35' E 037°53'3 3.1
2016-Jun-29 12:32N 44°34' E 037°58'0 0.0
2016-Jun-29 11:29N 44°34' E 037°58'0 0.0
2016-Jun-29 10:33N 44°34' E 037°58'0 0.0
2016-Jun-29 09:31N 44°34' E 037°58'0 0.0
2016-Jun-29 08:31N 44°34' E 037°58'0 0.0
2016-Jun-29 07:31N 44°34' E 037°58'0 0.0
2016-Jun-29 06:19N 44°34' E 037°58'0 0.0
2016-Jun-29 05:31N 44°34' E 037°58'0 0.0
2016-Jun-29 04:31N 44°34' E 037°58'0 0.0
2016-Jun-29 03:31N 44°34' E 037°58'0 0.0
2016-Jun-29 02:31N 44°34' E 037°58'0 0.0
2016-Jun-29 01:28N 44°34' E 037°58'0 0.0
2016-Jun-29 00:31N 44°34' E 037°58'0 0.0
2016-Jun-28 23:31N 44°34' E 037°58'0 0.0
2016-Jun-28 22:31N 44°34' E 037°58'0 0.0
2016-Jun-28 21:31N 44°34' E 037°58'0 0.0
2016-Jun-28 20:31N 44°34' E 037°58'0 0.0
2016-Jun-28 19:33N 44°34' E 037°58'0 0.0
2016-Jun-28 18:33N 44°34' E 037°58'0 0.0
2016-Jun-28 17:33N 44°34' E 037°58'0 0.0
2016-Jun-28 16:33N 44°34' E 037°58'0 0.0
2016-Jun-28 15:34N 44°34' E 037°58'0 0.0
2016-Jun-28 14:33N 44°34' E 037°58'0 0.0
2016-Jun-28 13:33N 44°34' E 037°58'0 0.0
2016-Jun-28 12:34N 44°34' E 037°58'0 0.0
2016-Jun-28 11:33N 44°34' E 037°58'0 0.0
2016-Jun-28 10:33N 44°34' E 037°58'0 0.0
2016-Jun-28 09:33N 44°34' E 037°58'0 0.0
2016-Jun-28 08:33N 44°34' E 037°58'0 0.0
2016-Jun-28 07:33N 44°34' E 037°58'0 0.0
2016-Jun-28 06:33N 44°34' E 037°58'0 0.0
2016-Jun-28 04:33N 44°34' E 037°58'0 0.0
2016-Jun-28 03:33N 44°34' E 037°58'0 0.0
2016-Jun-28 02:33N 44°34' E 037°58'0 0.0
2016-Jun-28 01:33N 44°34' E 037°58'0 0.0
2016-Jun-28 00:24N 44°34' E 037°58'0 0.0
2016-Jun-27 23:33N 44°34' E 037°58'0 0.0
2016-Jun-27 22:33N 44°34' E 037°58'0 0.0
2016-Jun-27 21:33N 44°34' E 037°58'0 0.0
2016-Jun-27 20:30N 44°34' E 037°58'0 0.0
2016-Jun-27 19:33N 44°34' E 037°58'0 0.0
2016-Jun-27 18:33N 44°34' E 037°58'0 0.0
2016-Jun-27 17:33N 44°34' E 037°58'0 0.0
2016-Jun-27 16:33N 44°34' E 037°58'0 0.0
2016-Jun-27 15:33N 44°34' E 037°58'0 0.0
2016-Jun-27 14:33N 44°34' E 037°58'0 0.0
2016-Jun-27 13:33N 44°34' E 037°58'0 0.0
2016-Jun-27 12:33N 44°34' E 037°58'0 0.0
2016-Jun-27 11:33N 44°34' E 037°58'0 0.0
2016-Jun-27 10:33N 44°34' E 037°58'0 0.0
2016-Jun-27 09:33N 44°34' E 037°58'0 0.0
2016-Jun-27 08:33N 44°34' E 037°58'0 0.0
2016-Jun-27 07:33N 44°34' E 037°58'0 0.0
2016-Jun-27 06:33N 44°34' E 037°58'0 0.0
2016-Jun-27 05:33N 44°34' E 037°58'0 0.0
2016-Jun-27 04:30N 44°34' E 037°58'0 0.0
2016-Jun-27 03:33N 44°34' E 037°58'0 0.0
2016-Jun-27 02:33N 44°34' E 037°58'0 0.0
2016-Jun-27 01:32N 44°34' E 037°58'0 0.0
2016-Jun-27 00:32N 44°34' E 037°58'0 0.0
2016-Jun-26 23:32N 44°34' E 037°58'0 0.0
2016-Jun-26 22:32N 44°34' E 037°58'0 0.0
2016-Jun-26 21:32N 44°34' E 037°58'0 0.0
2016-Jun-26 20:32N 44°34' E 037°58'0 0.0
2016-Jun-26 19:32N 44°34' E 037°58'0 0.0
2016-Jun-26 18:32N 44°34' E 037°58'0 0.0
2016-Jun-26 17:33N 44°34' E 037°58'0 0.0
2016-Jun-26 16:32N 44°34' E 037°58'0 0.0
2016-Jun-26 15:32N 44°34' E 037°58'0 0.0
2016-Jun-26 14:29N 44°34' E 037°58'0 0.0
2016-Jun-26 13:32N 44°34' E 037°58'0 0.1
2016-Jun-26 12:32N 44°34' E 037°58'0 0.0
2016-Jun-26 11:32N 44°34' E 037°58'1 1.0
2016-Jun-26 10:34N 44°34' E 037°57'8 7.9
2016-Jun-26 09:33N 44°30' E 037°47'1212.1
2016-Jun-26 08:33N 44°24' E 037°32'1211.8
2016-Jun-26 07:33N 44°20' E 037°17'3 0.3
2016-Jun-25 21:20N 44°17' E 037°19'1 1.8
2016-Jun-25 20:33N 44°17' E 037°21'4 1.3
2016-Jun-25 17:20N 44°19' E 037°26'1 1.0
2016-Jun-25 16:33N 44°19' E 037°28'0 0.3
2016-Jun-25 15:29N 44°19' E 037°28'0 0.2
2016-Jun-25 14:33N 44°18' E 037°28'0 0.4
2016-Jun-25 13:31N 44°18' E 037°28'0 0.5
2016-Jun-25 12:32N 44°18' E 037°27'1 0.5
2016-Jun-25 10:34N 44°17' E 037°28'1 0.9
2016-Jun-25 09:14N 44°18' E 037°29'3 1.1
2016-Jun-25 06:10N 44°21' E 037°31'4 1.4
2016-Jun-25 03:26N 44°25' E 037°33'1 1.6
2016-Jun-25 02:32N 44°26' E 037°34'3 2.7
2016-Jun-25 01:34N 44°25' E 037°30'1110.6
2016-Jun-25 00:32N 44°20' E 037°17'2211.0
2016-Jun-24 22:31N 44°10' E 036°49'5210.2
2016-Jun-24 17:27N 44°08' E 035°37'910.4
2016-Jun-24 16:33N 44°08' E 035°24'1110.2
2016-Jun-24 15:29N 44°08' E 035°09'9 9.9
2016-Jun-24 14:33N 44°08' E 034°56'1010.1
2016-Jun-24 13:34N 44°08' E 034°42'1110.5
2016-Jun-24 12:34N 44°08' E 034°28'1110.6
2016-Jun-24 11:33N 44°08' E 034°13'1110.5
2016-Jun-24 10:30N 44°08' E 033°57'7510.8
2016-Jun-24 03:33N 44°08' E 032°13'2510.8
2016-Jun-24 01:13N 44°08' E 031°38'  

Dump ship's entire track history